Time;durP1;ratioP1;P1;durP2;ratioP2;P2;SDS_P1;SDS_P2;PMS_P1;PMS_P2;Temp;Humidity;BMP_temperature;BMP_pressure;BME280_temperature;BME280_humidity;BME280_pressure;Samples;Min_cycle;Max_cycle;Signal;HPM_P1;HPM_P2
2022/06/24 00:00:04;;;;;;;2.27;2.07;;;20.80;99.90;;;;;;5053018;28;20410;-69
2022/06/24 00:02:29;;;;;;;2.43;2.23;;;20.80;99.90;;;;;;5053224;28;20411;-69
2022/06/24 00:04:56;;;;;;;2.00;1.90;;;20.80;99.90;;;;;;5052427;28;20410;-68
2022/06/24 00:07:22;;;;;;;2.43;2.10;;;20.80;99.90;;;;;;5052868;28;20171;-69
2022/06/24 00:09:48;;;;;;;2.23;2.03;;;20.80;99.90;;;;;;5052609;28;20501;-69
2022/06/24 00:12:16;;;;;;;2.30;2.10;;;20.80;99.90;;;;;;5052673;28;20169;-68
2022/06/24 00:14:45;;;;;;;3.23;2.53;;;20.80;99.90;;;;;;5052396;28;20405;-68
2022/06/24 00:17:11;;;;;;;3.03;2.10;;;20.80;99.90;;;;;;5052343;28;20437;-69
2022/06/24 00:19:56;;;;;;;2.80;1.63;;;20.70;99.90;;;;;;5052710;28;20435;-69
2022/06/24 00:22:22;;;;;;;2.50;2.30;;;20.70;99.90;;;;;;5052857;28;20400;-69
2022/06/24 00:24:48;;;;;;;2.50;1.97;;;20.70;99.90;;;;;;5053148;28;20413;-69
2022/06/24 00:27:22;;;;;;;2.30;2.10;;;20.70;99.90;;;;;;5053025;28;20465;-69
2022/06/24 00:29:49;;;;;;;2.70;2.50;;;20.70;99.90;;;;;;5052673;28;20196;-69
2022/06/24 00:32:16;;;;;;;2.57;2.37;;;20.60;99.90;;;;;;5052344;28;20429;-68
2022/06/24 00:34:42;;;;;;;2.53;2.33;;;20.60;99.90;;;;;;5052177;28;20450;-69
2022/06/24 00:37:29;;;;;;;1.93;1.83;;;20.60;99.90;;;;;;5052448;28;20993;-70
2022/06/24 00:40:02;;;;;;;2.57;2.37;;;20.60;99.90;;;;;;5052332;28;20395;-69
2022/06/24 00:42:29;;;;;;;2.97;2.60;;;20.60;99.90;;;;;;5052154;28;20388;-70
2022/06/24 00:45:18;;;;;;;2.83;2.10;;;20.60;99.90;;;;;;5051784;28;20402;-70
2022/06/24 00:47:45;;;;;;;3.10;2.43;;;20.60;99.90;;;;;;5052333;28;20895;-69
2022/06/24 00:50:21;;;;;;;2.23;2.13;;;20.60;99.90;;;;;;5051856;28;20454;-69
2022/06/24 00:52:48;;;;;;;2.10;2.00;;;20.60;99.90;;;;;;5051917;28;20904;-68
2022/06/24 00:55:23;;;;;;;3.10;2.40;;;20.70;99.90;;;;;;5051891;28;20943;-69
2022/06/24 00:57:49;;;;;;;3.17;2.50;;;20.60;99.90;;;;;;5051807;28;20401;-70
2022/06/24 01:00:15;;;;;;;2.87;2.50;;;20.60;99.90;;;;;;5052053;28;20497;-70
2022/06/24 01:02:42;;;;;;;2.50;2.30;;;20.60;99.90;;;;;;5051939;28;20204;-69
2022/06/24 01:05:09;;;;;;;3.07;2.50;;;20.50;99.90;;;;;;5051689;28;20475;-69
2022/06/24 01:07:41;;;;;;;2.50;2.30;;;20.50;99.90;;;;;;5051730;28;20402;-69
2022/06/24 01:10:08;;;;;;;2.80;2.47;;;20.50;99.90;;;;;;5051571;28;20442;-69
2022/06/24 01:12:34;;;;;;;2.50;2.30;;;20.50;99.90;;;;;;5051717;28;20401;-69
2022/06/24 01:15:02;;;;;;;2.33;2.13;;;20.50;99.90;;;;;;5051479;28;20421;-69
2022/06/24 01:17:27;;;;;;;2.00;1.80;;;20.50;99.90;;;;;;5051872;28;20830;-69
2022/06/24 01:19:53;;;;;;;2.40;2.20;;;20.40;99.90;;;;;;5051852;28;20453;-69
2022/06/24 01:22:23;;;;;;;2.47;2.27;;;20.40;99.90;;;;;;5051848;28;20542;-69
2022/06/24 01:24:49;;;;;;;2.77;2.50;;;20.40;99.90;;;;;;5051414;28;20250;-68
2022/06/24 01:27:15;;;;;;;2.67;2.47;;;20.30;99.90;;;;;;5049521;28;20994;-68
2022/06/24 01:29:41;;;;;;;2.43;2.23;;;20.20;99.90;;;;;;5051493;28;20561;-69
2022/06/24 01:32:07;;;;;;;2.50;2.30;;;20.20;99.90;;;;;;5051826;28;20297;-69
2022/06/24 01:34:33;;;;;;;2.83;2.63;;;20.20;99.90;;;;;;5052974;28;20903;-69
2022/06/24 01:36:58;;;;;;;3.57;2.60;;;20.10;99.90;;;;;;5053962;28;20565;-69
2022/06/24 01:39:24;;;;;;;2.50;2.30;;;20.10;99.90;;;;;;5058433;28;20164;-70
2022/06/24 01:41:51;;;;;;;2.23;2.13;;;20.10;99.90;;;;;;5054576;28;20740;-69
2022/06/24 01:44:17;;;;;;;3.30;2.43;;;20.10;99.90;;;;;;5051718;28;20592;-69
2022/06/24 01:46:42;;;;;;;2.80;2.60;;;20.10;99.90;;;;;;5051398;28;20425;-69
2022/06/24 01:49:08;;;;;;;2.73;2.50;;;20.10;99.90;;;;;;5051654;28;20410;-70
2022/06/24 01:51:36;;;;;;;2.80;2.53;;;20.10;99.90;;;;;;5051525;28;20167;-69
2022/06/24 01:54:03;;;;;;;3.27;2.83;;;20.00;99.90;;;;;;5051235;28;20283;-72
2022/06/24 01:56:28;;;;;;;3.00;2.70;;;20.00;99.90;;;;;;5051093;28;20480;-70
2022/06/24 01:58:54;;;;;;;3.13;2.83;;;20.00;99.90;;;;;;5051260;28;20164;-69
2022/06/24 02:01:20;;;;;;;2.57;2.37;;;19.90;99.90;;;;;;5051259;28;20649;-69
2022/06/24 02:03:45;;;;;;;3.30;3.10;;;19.90;99.90;;;;;;5051293;28;20594;-69
2022/06/24 02:06:13;;;;;;;3.50;3.13;;;19.90;99.90;;;;;;5050885;28;20290;-69
2022/06/24 02:08:39;;;;;;;3.83;2.80;;;19.90;99.90;;;;;;5051375;28;20405;-70
2022/06/24 02:13:51;;;;;;;2.70;2.50;;;19.90;99.90;;;;;;5051240;28;20456;-70
2022/06/24 02:16:20;;;;;;;2.70;2.50;;;19.90;99.90;;;;;;5033248;28;20491;-70
2022/06/24 02:18:46;;;;;;;5.43;2.70;;;19.90;99.90;;;;;;5051052;28;20847;-69
2022/06/24 02:21:12;;;;;;;3.70;3.40;;;19.90;99.90;;;;;;5054136;28;20453;-70
2022/06/24 02:23:38;;;;;;;3.03;2.83;;;19.90;99.90;;;;;;5054859;28;20488;-69
2022/06/24 02:26:04;;;;;;;4.03;3.00;;;19.80;99.90;;;;;;5054680;28;20491;-70
2022/06/24 02:28:29;;;;;;;4.13;3.27;;;19.80;99.90;;;;;;5054623;28;20178;-69
2022/06/24 02:30:58;;;;;;;3.03;2.73;;;19.80;99.90;;;;;;5054889;28;20198;-70
2022/06/24 02:33:24;;;;;;;2.90;2.60;;;19.80;99.90;;;;;;5054630;28;20246;-69
2022/06/24 02:35:50;;;;;;;3.13;2.93;;;19.70;99.90;;;;;;5054747;28;20431;-69
2022/06/24 02:38:15;;;;;;;3.70;3.40;;;19.80;99.90;;;;;;5054522;28;20167;-70
2022/06/24 02:40:51;;;;;;;3.83;2.97;;;19.70;99.90;;;;;;5054519;28;20174;-69
2022/06/24 02:43:32;;;;;;;4.47;3.83;;;19.70;99.90;;;;;;5054427;28;20162;-69
2022/06/24 02:46:00;;;;;;;2.93;2.60;;;19.70;99.90;;;;;;5054049;28;20565;-70
2022/06/24 02:48:26;;;;;;;2.60;2.40;;;19.60;99.90;;;;;;5054566;28;20897;-69
2022/06/24 02:50:54;;;;;;;3.10;2.90;;;19.60;99.90;;;;;;5054132;28;20452;-70
2022/06/24 02:53:21;;;;;;;3.43;3.13;;;19.60;99.90;;;;;;5054004;28;20407;-70
2022/06/24 02:55:49;;;;;;;2.73;2.53;;;19.60;99.90;;;;;;5053837;28;20527;-69
2022/06/24 02:58:15;;;;;;;4.07;3.67;;;19.70;99.90;;;;;;5053990;28;20455;-69
2022/06/24 03:00:41;;;;;;;3.77;3.00;;;19.60;99.90;;;;;;5054027;28;20412;-68
2022/06/24 03:03:08;;;;;;;3.20;2.93;;;19.60;99.90;;;;;;5054124;28;20411;-70
2022/06/24 03:05:34;;;;;;;3.10;2.90;;;19.60;99.90;;;;;;5053674;28;20441;-69
2022/06/24 03:08:00;;;;;;;3.60;3.30;;;19.60;99.90;;;;;;5053491;28;20416;-68
2022/06/24 03:10:25;;;;;;;3.13;2.93;;;19.60;99.90;;;;;;5054155;28;20547;-69
2022/06/24 03:12:51;;;;;;;3.10;2.90;;;19.60;99.90;;;;;;5053711;28;20177;-69
2022/06/24 03:15:17;;;;;;;4.17;3.00;;;19.60;99.90;;;;;;5053834;28;20182;-68
2022/06/24 03:17:43;;;;;;;4.10;2.60;;;19.60;99.90;;;;;;5053631;28;20228;-68
2022/06/24 03:20:09;;;;;;;2.70;2.50;;;19.60;99.90;;;;;;5053765;28;20441;-68
2022/06/24 03:22:35;;;;;;;2.97;2.70;;;19.50;99.90;;;;;;5053617;28;20175;-68
2022/06/24 03:25:02;;;;;;;3.93;3.10;;;19.50;99.90;;;;;;5057675;28;20416;-68
2022/06/24 03:27:28;;;;;;;3.20;3.00;;;19.50;99.90;;;;;;5062747;28;20493;-68
2022/06/24 03:29:54;;;;;;;2.70;2.50;;;19.50;99.90;;;;;;5053443;28;20554;-68
2022/06/24 03:32:20;;;;;;;3.73;3.43;;;19.50;99.90;;;;;;5052208;28;20178;-68
2022/06/24 03:34:45;;;;;;;7.00;3.30;;;19.50;99.90;;;;;;5053432;28;20410;-68
2022/06/24 03:37:11;;;;;;;3.60;3.33;;;19.50;99.90;;;;;;5053241;28;20242;-69
2022/06/24 03:39:37;;;;;;;3.50;2.80;;;19.60;99.90;;;;;;5053260;28;20217;-69
2022/06/24 03:42:03;;;;;;;3.60;3.30;;;19.60;99.90;;;;;;5053329;28;20743;-69
2022/06/24 03:44:29;;;;;;;3.30;3.10;;;19.60;99.90;;;;;;5052988;28;20223;-69
2022/06/24 03:46:54;;;;;;;4.17;3.87;;;19.70;99.90;;;;;;5053336;28;20436;-69
2022/06/24 03:49:20;;;;;;;3.27;3.00;;;19.70;99.90;;;;;;5053022;28;20720;-70
2022/06/24 03:51:46;;;;;;;3.40;3.20;;;19.80;99.90;;;;;;5035396;28;20178;-71
2022/06/24 03:54:11;;;;;;;3.67;3.37;;;19.80;99.90;;;;;;5053183;28;20553;-68
2022/06/24 03:56:37;;;;;;;3.87;3.47;;;19.80;99.90;;;;;;5052754;28;20446;-70
2022/06/24 03:59:03;;;;;;;2.77;2.57;;;19.90;99.90;;;;;;5052965;28;20604;-68
2022/06/24 04:01:28;;;;;;;5.50;3.23;;;19.90;99.90;;;;;;5052876;28;20180;-69
2022/06/24 04:03:54;;;;;;;4.60;3.40;;;20.00;99.90;;;;;;5052938;28;20164;-69
2022/06/24 04:06:20;;;;;;;3.77;3.47;;;20.00;99.90;;;;;;5052666;28;20201;-69
2022/06/24 04:08:45;;;;;;;3.27;2.97;;;20.20;99.90;;;;;;5053095;28;20183;-69
2022/06/24 04:11:16;;;;;;;3.23;2.80;;;20.20;99.90;;;;;;5052972;28;20277;-68
2022/06/24 04:13:43;;;;;;;3.73;3.43;;;20.30;99.90;;;;;;5052552;28;20631;-69
2022/06/24 04:16:09;;;;;;;3.60;3.33;;;20.50;99.90;;;;;;5052496;28;20481;-69
2022/06/24 04:18:35;;;;;;;3.40;3.20;;;21.20;99.90;;;;;;5053063;28;20820;-69
2022/06/24 04:21:01;;;;;;;2.90;2.70;;;22.30;99.90;;;;;;5052523;28;20406;-69
2022/06/24 04:23:27;;;;;;;3.10;2.90;;;22.80;99.30;;;;;;5052621;28;20189;-69
2022/06/24 04:25:53;;;;;;;3.13;2.90;;;23.50;98.40;;;;;;5052437;28;20491;-69
2022/06/24 04:28:19;;;;;;;2.87;2.67;;;24.30;97.20;;;;;;5052601;28;20177;-69
2022/06/24 04:30:44;;;;;;;3.13;2.83;;;24.30;96.30;;;;;;5052334;28;20462;-69
2022/06/24 04:33:10;;;;;;;2.90;2.70;;;24.30;96.30;;;;;;5052277;28;20170;-69
2022/06/24 04:35:36;;;;;;;3.03;2.80;;;24.40;95.50;;;;;;5051813;28;20183;-69
2022/06/24 04:38:01;;;;;;;3.07;2.80;;;24.60;95.50;;;;;;5052325;28;20173;-69
2022/06/24 04:40:27;;;;;;;2.90;2.70;;;24.50;95.00;;;;;;5052220;28;20693;-68
2022/06/24 04:42:53;;;;;;;4.67;2.60;;;24.60;95.00;;;;;;5052050;28;20176;-69
2022/06/24 04:45:18;;;;;;;2.50;2.30;;;24.90;94.40;;;;;;5053120;28;20688;-69
2022/06/24 04:47:44;;;;;;;3.20;2.73;;;24.90;94.40;;;;;;5058690;28;20170;-69
2022/06/24 04:50:10;;;;;;;3.00;2.73;;;25.30;93.70;;;;;;5053495;28;20589;-69
2022/06/24 04:52:37;;;;;;;3.27;2.47;;;24.90;93.80;;;;;;5052382;28;20205;-69
2022/06/24 04:55:04;;;;;;;3.20;2.90;;;24.80;94.10;;;;;;5051896;28;20405;-69
2022/06/24 04:57:29;;;;;;;2.87;2.67;;;24.60;94.50;;;;;;5051911;28;20405;-68
2022/06/24 04:59:55;;;;;;;3.10;2.90;;;24.70;94.10;;;;;;5051657;28;20434;-68
2022/06/24 05:02:21;;;;;;;3.27;2.90;;;24.90;94.30;;;;;;5051890;28;20173;-68
2022/06/24 05:04:46;;;;;;;2.93;2.70;;;25.00;93.40;;;;;;5051562;28;20165;-68
2022/06/24 05:07:12;;;;;;;2.33;2.23;;;25.40;93.60;;;;;;5051852;28;20309;-69
2022/06/24 05:09:37;;;;;;;3.00;2.80;;;25.10;93.00;;;;;;5053420;28;20205;-69
2022/06/24 05:12:04;;;;;;;4.60;4.13;;;25.40;93.40;;;;;;5057380;28;20194;-69
2022/06/24 05:14:30;;;;;;;2.60;2.47;;;26.00;92.50;;;;;;5054548;28;20162;-68
2022/06/24 05:16:57;;;;;;;2.93;2.73;;;25.70;92.60;;;;;;5051731;28;20423;-68
2022/06/24 05:19:22;;;;;;;4.13;2.87;;;26.00;92.00;;;;;;5051532;28;20770;-68
2022/06/24 05:21:48;;;;;;;2.67;2.47;;;26.60;90.70;;;;;;5051678;28;20405;-69
2022/06/24 05:24:13;;;;;;;3.20;2.90;;;26.50;90.60;;;;;;5052548;28;20171;-69
2022/06/24 05:26:43;;;;;;;2.87;2.30;;;26.70;90.10;;;;;;5051570;28;20190;-69
2022/06/24 05:29:09;;;;;;;4.10;3.90;;;26.60;91.00;;;;;;5051495;28;20179;-69
2022/06/24 05:31:35;;;;;;;2.50;2.30;;;26.60;90.30;;;;;;5051518;28;20457;-69
2022/06/24 05:34:00;;;;;;;2.90;2.70;;;27.00;89.40;;;;;;5051560;28;20795;-69
2022/06/24 05:36:26;;;;;;;2.70;2.50;;;26.90;89.20;;;;;;5051329;28;20182;-69
2022/06/24 05:38:51;;;;;;;2.33;2.13;;;27.10;89.20;;;;;;5051653;28;20186;-69
2022/06/24 05:41:17;;;;;;;2.70;2.50;;;26.90;89.90;;;;;;5051683;28;20221;-69
2022/06/24 05:43:44;;;;;;;3.13;2.93;;;27.10;88.90;;;;;;5051353;28;20649;-69
2022/06/24 05:46:10;;;;;;;2.70;2.50;;;27.00;88.40;;;;;;5051878;28;20946;-69
2022/06/24 05:48:36;;;;;;;3.37;2.50;;;27.20;87.20;;;;;;5051310;28;20418;-69
2022/06/24 05:51:16;;;;;;;2.97;2.77;;;27.10;87.10;;;;;;5051539;28;20640;-69
2022/06/24 05:56:27;;;;;;;2.10;1.90;;;27.40;85.70;;;;;;5054733;28;20442;-68
2022/06/24 05:58:53;;;;;;;2.87;2.67;;;26.50;88.90;;;;;;5075571;22;20491;-65
2022/06/24 06:01:19;;;;;;;8.50;2.63;;;27.00;86.50;;;;;;5054039;28;20413;-65
2022/06/24 06:03:45;;;;;;;4.00;2.57;;;27.30;87.30;;;;;;5054094;28;20216;-65
2022/06/24 06:06:10;;;;;;;1.93;1.83;;;27.90;84.30;;;;;;5054028;28;20163;-66
2022/06/24 06:08:37;;;;;;;2.20;2.07;;;28.20;82.80;;;;;;5053638;28;20421;-65
2022/06/24 06:11:14;;;;;;;2.77;2.30;;;28.20;81.20;;;;;;5053587;28;20202;-65
2022/06/24 06:13:41;;;;;;;2.30;2.13;;;28.50;79.80;;;;;;5053581;28;20385;-65
2022/06/24 06:16:07;;;;;;;3.23;2.23;;;28.30;81.40;;;;;;5053448;28;20856;-65
2022/06/24 06:18:33;;;;;;;2.30;2.10;;;28.30;80.00;;;;;;5053801;28;20502;-66
2022/06/24 06:21:04;;;;;;;2.63;2.00;;;28.50;79.90;;;;;;5053720;28;20700;-66
2022/06/24 06:23:29;;;;;;;2.07;1.97;;;28.50;78.80;;;;;;5053419;28;20215;-65
2022/06/24 06:25:59;;;;;;;2.60;2.40;;;29.40;76.50;;;;;;5053280;28;20401;-65
2022/06/24 06:28:25;;;;;;;2.13;1.93;;;29.40;74.60;;;;;;5053505;28;20194;-65
2022/06/24 06:30:51;;;;;;;2.20;2.00;;;29.70;73.90;;;;;;5053647;28;20775;-65
2022/06/24 06:33:17;;;;;;;5.10;2.17;;;29.80;72.90;;;;;;5053470;28;20182;-65
2022/06/24 06:35:43;;;;;;;2.33;1.77;;;29.70;72.40;;;;;;5053207;28;20175;-65
2022/06/24 06:38:09;;;;;;;2.20;2.10;;;30.00;73.10;;;;;;5053433;28;20469;-65
2022/06/24 06:40:35;;;;;;;3.20;1.93;;;31.00;70.50;;;;;;5053200;28;20171;-65
2022/06/24 06:43:01;;;;;;;2.50;2.30;;;31.00;69.70;;;;;;5053275;28;20171;-66
2022/06/24 06:45:28;;;;;;;2.10;1.90;;;31.10;68.80;;;;;;5053345;28;20531;-65
2022/06/24 06:47:53;;;;;;;1.90;1.80;;;30.80;68.40;;;;;;5053385;28;20425;-65
2022/06/24 06:50:19;;;;;;;2.30;2.10;;;30.00;69.50;;;;;;5053115;28;20468;-65
2022/06/24 06:52:44;;;;;;;1.90;1.77;;;30.30;69.20;;;;;;5053164;28;20167;-65
2022/06/24 06:55:10;;;;;;;2.17;2.07;;;30.70;68.90;;;;;;5052853;28;20167;-65
2022/06/24 06:57:36;;;;;;;2.40;2.10;;;31.30;66.30;;;;;;5053092;28;20202;-65
2022/06/24 07:00:03;;;;;;;3.90;2.30;;;31.60;66.00;;;;;;5035187;28;20262;-65
2022/06/24 07:02:28;;;;;;;1.93;1.83;;;31.00;65.10;;;;;;5052979;28;20166;-65
2022/06/24 07:04:54;;;;;;;5.63;2.10;;;31.90;65.20;;;;;;5052728;28;20422;-65
2022/06/24 07:07:19;;;;;;;3.70;1.67;;;31.90;64.30;;;;;;5052808;28;20179;-65
2022/06/24 07:09:45;;;;;;;3.63;1.90;;;32.40;61.70;;;;;;5052873;28;20199;-66
2022/06/24 07:12:11;;;;;;;4.93;1.63;;;31.90;61.30;;;;;;5053101;28;20274;-66
2022/06/24 07:14:41;;;;;;;2.10;1.90;;;32.00;61.60;;;;;;5052841;28;20167;-66
2022/06/24 07:17:06;;;;;;;1.67;1.50;;;33.30;59.20;;;;;;5052988;28;20182;-66
2022/06/24 07:19:32;;;;;;;3.43;2.07;;;32.00;60.40;;;;;;5052868;28;20455;-66
2022/06/24 07:21:57;;;;;;;2.17;2.07;;;32.50;60.00;;;;;;5052678;28;20183;-66
2022/06/24 07:24:23;;;;;;;1.90;1.80;;;31.90;59.60;;;;;;5052534;28;20182;-66
2022/06/24 07:26:48;;;;;;;2.23;2.00;;;32.20;58.90;;;;;;5052448;28;20171;-66
2022/06/24 07:29:14;;;;;;;3.13;2.77;;;31.80;58.10;;;;;;5052240;28;20194;-66
2022/06/24 07:31:39;;;;;;;2.43;2.23;;;32.60;58.60;;;;;;5052361;28;20167;-66
2022/06/24 07:34:06;;;;;;;2.07;1.93;;;32.80;57.10;;;;;;5052737;28;20218;-66
2022/06/24 07:36:31;;;;;;;2.10;2.00;;;32.90;56.40;;;;;;5052149;28;20171;-66
2022/06/24 07:38:57;;;;;;;1.73;1.63;;;33.20;56.00;;;;;;5033877;28;20755;-65
2022/06/24 07:41:22;;;;;;;1.73;1.60;;;32.20;56.20;;;;;;5052224;28;20201;-65
2022/06/24 07:43:48;;;;;;;2.30;2.10;;;33.50;55.90;;;;;;5052390;28;20577;-65
2022/06/24 07:46:13;;;;;;;3.20;1.80;;;33.00;54.60;;;;;;5052038;28;20167;-65
2022/06/24 07:48:39;;;;;;;2.60;1.90;;;32.40;55.50;;;;;;5051840;28;20205;-66
2022/06/24 07:51:09;;;;;;;2.00;1.70;;;32.60;55.10;;;;;;5051965;28;20199;-66
2022/06/24 07:53:35;;;;;;;1.80;1.70;;;32.70;54.40;;;;;;5051892;28;20257;-65
2022/06/24 07:58:45;;;;;;;1.93;1.83;;;33.40;53.60;;;;;;5051642;28;20590;-65
2022/06/24 08:01:10;;;;;;;1.73;1.63;;;33.00;53.70;;;;;;5051676;28;20485;-65
2022/06/24 08:03:37;;;;;;;3.33;2.00;;;32.70;53.50;;;;;;5051612;28;20659;-65
2022/06/24 08:06:02;;;;;;;1.80;1.70;;;32.50;53.50;;;;;;5051520;28;20205;-65
2022/06/24 08:08:28;;;;;;;2.17;1.73;;;33.30;53.30;;;;;;5051565;28;20428;-65
2022/06/24 08:10:53;;;;;;;5.80;5.27;;;32.70;53.30;;;;;;5051513;28;20562;-65
2022/06/24 08:13:19;;;;;;;2.20;2.03;;;34.30;52.80;;;;;;5051313;28;20232;-66
2022/06/24 08:15:44;;;;;;;1.73;1.53;;;33.70;51.10;;;;;;5051210;28;20167;-65
2022/06/24 08:18:10;;;;;;;1.57;1.47;;;32.50;52.70;;;;;;5050830;28;20187;-66
2022/06/24 08:20:35;;;;;;;2.90;1.70;;;33.00;52.60;;;;;;5051284;28;20174;-66
2022/06/24 08:23:01;;;;;;;3.27;3.07;;;32.40;52.30;;;;;;5051338;28;20205;-66
2022/06/24 08:25:27;;;;;;;1.67;1.57;;;32.20;52.80;;;;;;5051261;28;20175;-66
2022/06/24 08:27:52;;;;;;;1.80;1.70;;;32.80;53.20;;;;;;5051272;28;20191;-66
2022/06/24 08:30:19;;;;;;;4.10;1.87;;;31.60;55.10;;;;;;5051230;28;20201;-66
2022/06/24 08:32:44;;;;;;;1.70;1.60;;;32.60;53.40;;;;;;5051358;28;20609;-65
2022/06/24 08:35:10;;;;;;;2.57;1.80;;;32.20;52.90;;;;;;5051045;28;20405;-65
2022/06/24 08:37:35;;;;;;;1.80;1.67;;;32.90;52.40;;;;;;5051272;28;20187;-67
2022/06/24 08:40:01;;;;;;;1.60;1.50;;;33.30;51.80;;;;;;5051139;28;20255;-66
2022/06/24 08:42:28;;;;;;;2.60;1.70;;;33.90;50.20;;;;;;5051197;28;20178;-66
2022/06/24 08:44:59;;;;;;;1.63;1.50;;;32.50;51.40;;;;;;5032847;28;20177;-66
2022/06/24 08:47:25;;;;;;;2.63;1.60;;;32.60;51.80;;;;;;5051380;28;20409;-66
2022/06/24 08:49:50;;;;;;;3.67;1.50;;;33.80;51.30;;;;;;5051310;28;20828;-66
2022/06/24 08:52:18;;;;;;;2.20;1.80;;;33.70;51.10;;;;;;5051363;28;20262;-64
2022/06/24 08:54:45;;;;;;;2.10;1.90;;;33.30;53.00;;;;;;5051096;28;20155;-65
2022/06/24 08:57:12;;;;;;;2.20;2.00;;;33.80;51.70;;;;;;5051223;28;20414;-65
2022/06/24 08:59:38;;;;;;;3.43;2.33;;;34.80;50.70;;;;;;5051226;28;20979;-65
2022/06/24 09:02:04;;;;;;;2.20;2.00;;;34.10;50.90;;;;;;5051151;28;20496;-65
2022/06/24 09:04:33;;;;;;;3.13;2.13;;;33.60;51.90;;;;;;5050907;28;20573;-66
2022/06/24 09:07:00;;;;;;;3.30;2.13;;;33.00;53.60;;;;;;5051143;28;20645;-65
2022/06/24 09:09:26;;;;;;;1.93;1.83;;;33.60;52.30;;;;;;5051006;28;20482;-66
2022/06/24 09:11:57;;;;;;;1.80;1.70;;;34.10;52.30;;;;;;5051620;28;20775;-65
2022/06/24 09:14:41;;;;;;;1.70;1.60;;;34.30;49.20;;;;;;5050841;28;20397;-65
2022/06/24 09:17:07;;;;;;;3.23;1.73;;;33.60;50.40;;;;;;5051187;28;20776;-65
2022/06/24 09:19:33;;;;;;;3.23;2.40;;;33.10;51.10;;;;;;5050823;28;20397;-65
2022/06/24 09:21:59;;;;;;;1.93;1.70;;;34.20;49.50;;;;;;5051163;28;20182;-65
2022/06/24 09:24:45;;;;;;;1.83;1.73;;;33.70;50.40;;;;;;5051014;28;20256;-65
2022/06/24 09:27:11;;;;;;;2.80;2.10;;;32.50;52.20;;;;;;5050750;28;20408;-65
2022/06/24 09:29:37;;;;;;;2.13;1.60;;;33.70;50.70;;;;;;5052844;28;20464;-65
2022/06/24 09:32:08;;;;;;;1.73;1.63;;;34.20;49.60;;;;;;5055007;28;20167;-65
2022/06/24 09:34:33;;;;;;;2.20;2.00;;;33.90;49.50;;;;;;5054869;28;20171;-65
2022/06/24 09:36:59;;;;;;;1.90;1.70;;;34.20;48.80;;;;;;5054929;28;20886;-65
2022/06/24 09:39:24;;;;;;;2.20;2.10;;;33.80;49.00;;;;;;5054791;28;20190;-65
2022/06/24 09:41:56;;;;;;;2.10;2.00;;;33.70;49.00;;;;;;5054824;28;20171;-65
2022/06/24 09:44:21;;;;;;;1.87;1.77;;;33.20;49.40;;;;;;5054952;28;20549;-65
2022/06/24 09:47:00;;;;;;;2.13;2.03;;;33.10;49.80;;;;;;5054616;28;20401;-65
2022/06/24 09:49:26;;;;;;;2.17;1.97;;;33.20;49.40;;;;;;5054711;28;20248;-65
2022/06/24 09:51:54;;;;;;;2.10;1.80;;;32.80;48.90;;;;;;5054745;28;20417;-66
2022/06/24 09:54:20;;;;;;;3.73;2.93;;;33.10;48.60;;;;;;5054568;28;20405;-65
2022/06/24 09:56:47;;;;;;;2.00;1.83;;;32.70;49.00;;;;;;5054573;28;20439;-65
2022/06/24 10:01:59;;;;;;;2.53;1.90;;;32.60;48.80;;;;;;5054645;28;20491;-66
2022/06/24 10:04:26;;;;;;;1.60;1.50;;;32.80;48.10;;;;;;5054401;28;20413;-66
2022/06/24 10:06:54;;;;;;;1.97;1.80;;;33.00;46.40;;;;;;5054327;28;20409;-66
2022/06/24 10:09:25;;;;;;;1.87;1.50;;;32.60;47.80;;;;;;5054547;28;20432;-66
2022/06/24 10:11:52;;;;;;;1.77;1.67;;;32.20;47.30;;;;;;5036570;28;20440;-65
2022/06/24 10:14:19;;;;;;;2.07;1.87;;;31.70;48.50;;;;;;5054405;28;20401;-65
2022/06/24 10:16:48;;;;;;;2.90;1.50;;;31.80;47.70;;;;;;5054317;28;20420;-65
2022/06/24 10:19:16;;;;;;;1.70;1.53;;;32.20;47.40;;;;;;5053984;28;20840;-65
2022/06/24 10:21:41;;;;;;;1.50;1.40;;;31.40;48.30;;;;;;5054226;28;20500;-65
2022/06/24 10:24:12;;;;;;;2.10;1.80;;;31.30;49.10;;;;;;5054229;28;20499;-66
2022/06/24 10:26:39;;;;;;;2.00;1.90;;;31.40;48.90;;;;;;5053941;28;20197;-65
2022/06/24 10:29:04;;;;;;;1.70;1.60;;;31.50;49.50;;;;;;5053695;28;20524;-65
2022/06/24 10:31:48;;;;;;;2.30;2.10;;;31.20;48.70;;;;;;5053960;28;20536;-65
2022/06/24 10:34:22;;;;;;;2.47;2.17;;;31.00;49.10;;;;;;5036175;28;20171;-65
2022/06/24 10:36:50;;;;;;;1.53;1.43;;;31.00;51.00;;;;;;5053794;28;20405;-65
2022/06/24 10:39:18;;;;;;;1.90;1.80;;;31.00;50.40;;;;;;5053965;28;20553;-65
2022/06/24 10:41:44;;;;;;;1.80;1.70;;;30.90;50.20;;;;;;5053055;28;20405;-65
2022/06/24 10:44:29;;;;;;;1.90;1.70;;;30.60;51.10;;;;;;5053462;28;20560;-65
2022/06/24 10:47:12;;;;;;;2.00;1.90;;;30.50;51.60;;;;;;5053726;28;20470;-64
2022/06/24 10:49:55;;;;;;;1.90;1.80;;;30.50;51.50;;;;;;5053426;28;20449;-65
2022/06/24 10:52:47;;;;;;;1.83;1.73;;;30.50;51.90;;;;;;5053689;28;20412;-65
2022/06/24 10:55:16;;;;;;;2.03;1.93;;;30.60;52.00;;;;;;5053416;28;20398;-64
2022/06/24 10:57:54;;;;;;;2.20;2.00;;;30.70;52.50;;;;;;5053198;28;20441;-65
2022/06/24 11:00:25;;;;;;;2.87;2.67;;;30.50;52.50;;;;;;5053443;28;20888;-65
2022/06/24 11:03:12;;;;;;;1.73;1.63;;;30.70;52.50;;;;;;5053401;28;20488;-66
2022/06/24 11:05:40;;;;;;;2.47;2.27;;;30.90;52.40;;;;;;5053302;28;20404;-65
2022/06/24 11:08:15;;;;;;;2.00;1.90;;;30.70;52.60;;;;;;5053182;28;20417;-65
2022/06/24 11:10:41;;;;;;;2.40;1.67;;;30.50;53.00;;;;;;5053200;28;20460;-65
2022/06/24 11:13:08;;;;;;;2.17;1.90;;;30.20;52.40;;;;;;5053071;28;20776;-66
2022/06/24 11:15:38;;;;;;;4.10;2.97;;;30.30;51.90;;;;;;5052717;28;20551;-65
2022/06/24 11:18:06;;;;;;;2.53;2.13;;;30.30;53.10;;;;;;5035054;28;20457;-65
2022/06/24 11:20:36;;;;;;;2.30;2.20;;;30.40;53.50;;;;;;5053008;28;20401;-65
2022/06/24 11:23:06;;;;;;;2.63;2.20;;;30.70;53.20;;;;;;5052955;28;20409;-66
2022/06/24 11:25:33;;;;;;;2.73;2.53;;;30.60;52.40;;;;;;5052696;28;20409;-65
2022/06/24 11:27:59;;;;;;;2.80;2.60;;;30.40;52.80;;;;;;5052584;28;20849;-65
2022/06/24 11:30:25;;;;;;;2.07;1.97;;;30.60;53.30;;;;;;5052602;28;20538;-66
2022/06/24 11:32:55;;;;;;;2.40;2.30;;;30.60;53.30;;;;;;5053045;28;20163;-65
2022/06/24 11:35:22;;;;;;;2.77;2.50;;;30.50;53.80;;;;;;5052752;28;20162;-65
2022/06/24 11:37:48;;;;;;;2.43;2.30;;;30.80;53.90;;;;;;5052939;28;20428;-65
2022/06/24 11:40:27;;;;;;;2.30;2.10;;;31.00;53.10;;;;;;5034770;28;20417;-65
2022/06/24 11:42:54;;;;;;;2.57;2.37;;;30.80;53.20;;;;;;5052798;28;20424;-65
2022/06/24 11:45:39;;;;;;;2.50;1.90;;;30.80;53.40;;;;;;5052497;28;20409;-66
2022/06/24 11:48:06;;;;;;;2.43;2.23;;;30.60;54.10;;;;;;5052572;28;20872;-65
2022/06/24 11:50:33;;;;;;;2.10;1.90;;;30.60;53.50;;;;;;5052332;28;20445;-65
2022/06/24 11:53:00;;;;;;;3.03;2.73;;;30.60;52.60;;;;;;5051283;28;20404;-66
2022/06/24 11:55:31;;;;;;;4.60;2.90;;;30.70;52.80;;;;;;5052357;28;20409;-66
2022/06/24 11:57:58;;;;;;;3.67;2.70;;;30.80;52.50;;;;;;5074101;22;20527;-70
2022/06/24 12:00:25;;;;;;;2.33;2.23;;;31.00;51.90;;;;;;5052613;28;20413;-70
2022/06/24 12:02:53;;;;;;;2.47;2.27;;;31.10;51.90;;;;;;5054311;28;20771;-69
2022/06/24 12:05:21;;;;;;;3.03;2.10;;;31.20;52.20;;;;;;5053363;28;20448;-69
2022/06/24 12:07:47;;;;;;;2.67;2.10;;;31.40;51.70;;;;;;5053454;28;20397;-68
2022/06/24 12:10:13;;;;;;;2.20;2.00;;;31.40;51.40;;;;;;5054318;28;20479;-69
2022/06/24 12:12:56;;;;;;;2.20;2.10;;;31.40;50.30;;;;;;5058868;28;20413;-69
2022/06/24 12:15:46;;;;;;;1.87;1.73;;;31.10;50.80;;;;;;5053961;28;20170;-67
2022/06/24 12:18:18;;;;;;;1.80;1.70;;;30.90;49.60;;;;;;5043138;28;20568;-68
2022/06/24 12:21:01;;;;;;;2.33;2.23;;;31.50;50.20;;;;;;5054390;28;20452;-68
2022/06/24 12:23:45;;;;;;;1.73;1.63;;;31.60;49.50;;;;;;5052875;28;20437;-68
2022/06/24 12:26:42;;;;;;;3.57;1.73;;;31.90;48.50;;;;;;5052964;28;20406;-67
2022/06/24 12:29:08;;;;;;;2.07;1.97;;;31.80;49.20;;;;;;5052317;28;20429;-68
2022/06/24 12:31:35;;;;;;;2.17;2.03;;;31.60;48.90;;;;;;5053066;28;20816;-67
2022/06/24 12:34:02;;;;;;;2.10;1.93;;;31.70;49.10;;;;;;5053700;28;20197;-69
2022/06/24 12:36:36;;;;;;;2.37;2.17;;;31.90;49.30;;;;;;5052962;28;20420;-68
2022/06/24 12:39:06;;;;;;;2.37;2.17;;;32.10;49.00;;;;;;5052764;28;20490;-68
2022/06/24 12:41:48;;;;;;;2.20;1.87;;;32.10;49.90;;;;;;5053303;28;20488;-68
2022/06/24 12:44:15;;;;;;;1.70;1.60;;;32.30;49.20;;;;;;5053040;28;20405;-68
2022/06/24 12:52:44;;;;;;;2.30;1.77;;;32.20;47.30;;;;;;5052462;28;20451;-68
2022/06/24 12:55:19;;;;;;;2.73;1.50;;;32.20;45.70;;;;;;5051956;28;20397;-68
2022/06/24 12:57:45;;;;;;;1.87;1.77;;;32.40;45.90;;;;;;5052084;28;20431;-68
2022/06/24 13:00:13;;;;;;;1.60;1.50;;;32.40;44.80;;;;;;5052318;28;20413;-68
2022/06/24 13:02:49;;;;;;;1.50;1.40;;;32.30;45.30;;;;;;5052438;28;20170;-68
2022/06/24 13:05:19;;;;;;;2.20;1.53;;;32.40;44.60;;;;;;5052021;28;20392;-68
2022/06/24 13:07:45;;;;;;;1.63;1.53;;;32.60;44.70;;;;;;5052554;28;20402;-68